Time;durP1;ratioP1;P1;durP2;ratioP2;P2;SDS_P1;SDS_P2;PMS_P1;PMS_P2;Temp;Humidity;BMP_temperature;BMP_pressure;BME280_temperature;BME280_humidity;BME280_pressure;Samples;Min_cycle;Max_cycle;Signal;HPM_P1;HPM_P2
2021/11/26 00:00:10;;;;;;;33.33;18.97;;;5.60;68.50;;;;;;5070612;28;20059;-80
2021/11/26 00:02:36;;;;;;;31.63;18.97;;;5.50;68.50;;;;;;5070116;28;20153;-80
2021/11/26 00:05:03;;;;;;;33.63;18.47;;;5.50;68.60;;;;;;5073986;28;20118;-80
2021/11/26 00:07:30;;;;;;;32.03;18.40;;;5.50;68.40;;;;;;5071264;28;20035;-80
2021/11/26 00:09:55;;;;;;;31.57;17.83;;;5.50;68.40;;;;;;5071396;28;20448;-80
2021/11/26 00:12:22;;;;;;;30.50;17.70;;;5.50;68.40;;;;;;5072088;28;20116;-80
2021/11/26 00:17:18;;;;;;;30.37;17.83;;;5.50;68.30;;;;;;5086196;28;20035;-80
2021/11/26 00:19:45;;;;;;;30.13;17.60;;;5.50;68.50;;;;;;5072381;28;20027;-80
2021/11/26 00:22:11;;;;;;;30.70;17.50;;;5.50;68.70;;;;;;5071380;28;20107;-80
2021/11/26 00:24:37;;;;;;;32.33;18.63;;;5.50;68.60;;;;;;5073412;28;20142;-80
2021/11/26 00:27:03;;;;;;;30.50;18.07;;;5.50;68.60;;;;;;5088797;28;20024;-80
2021/11/26 00:29:28;;;;;;;31.97;18.57;;;5.40;68.70;;;;;;5090993;28;20414;-80
2021/11/26 00:31:54;;;;;;;29.07;18.17;;;5.40;68.80;;;;;;5070037;28;20012;-80
2021/11/26 00:34:20;;;;;;;31.37;17.50;;;5.40;68.80;;;;;;5088846;28;20548;-80
2021/11/26 00:36:45;;;;;;;28.27;17.83;;;5.30;68.90;;;;;;5074396;28;20032;-82
2021/11/26 00:39:11;;;;;;;30.67;17.70;;;5.30;69.00;;;;;;5065010;28;20485;-82
2021/11/26 00:41:37;;;;;;;30.10;17.50;;;5.30;68.90;;;;;;5074299;28;20111;-81
2021/11/26 00:44:03;;;;;;;28.00;15.67;;;5.30;69.10;;;;;;5089235;28;20021;-82
2021/11/26 00:46:29;;;;;;;27.57;15.97;;;5.30;69.10;;;;;;5073443;28;20096;-81
2021/11/26 00:48:55;;;;;;;27.27;16.33;;;5.30;68.90;;;;;;5093098;28;20024;-82
2021/11/26 00:51:21;;;;;;;29.13;16.60;;;5.30;68.90;;;;;;5074848;28;20059;-82
2021/11/26 00:53:47;;;;;;;30.77;17.30;;;5.30;69.10;;;;;;5102231;28;20096;-82
2021/11/26 00:56:13;;;;;;;27.43;16.60;;;5.30;68.90;;;;;;5089374;28;20380;-81
2021/11/26 00:58:39;;;;;;;27.23;16.17;;;5.30;69.20;;;;;;5089242;28;20024;-82
2021/11/26 01:01:05;;;;;;;24.57;15.40;;;5.20;69.20;;;;;;5079052;28;20031;-82
2021/11/26 01:03:30;;;;;;;25.20;15.57;;;5.30;69.30;;;;;;5089879;28;20134;-82
2021/11/26 01:05:56;;;;;;;30.13;16.50;;;5.30;69.20;;;;;;5058964;28;20056;-82
2021/11/26 01:08:22;;;;;;;27.77;16.17;;;5.40;69.10;;;;;;5090200;28;20036;-82
2021/11/26 01:10:50;;;;;;;29.17;17.17;;;5.40;69.00;;;;;;5088775;28;20059;-81
2021/11/26 01:13:18;;;;;;;27.20;15.53;;;5.30;69.00;;;;;;5077026;28;20502;-82
2021/11/26 01:15:44;;;;;;;26.70;16.03;;;5.30;69.10;;;;;;5081104;28;20094;-82
2021/11/26 01:18:11;;;;;;;26.33;15.37;;;5.40;69.00;;;;;;5076867;28;20016;-82
2021/11/26 01:20:38;;;;;;;28.67;15.57;;;5.40;69.00;;;;;;5113043;28;20099;-81
2021/11/26 01:23:05;;;;;;;27.33;16.33;;;5.40;68.80;;;;;;5076408;28;20119;-82
2021/11/26 01:25:32;;;;;;;26.33;15.33;;;5.40;68.90;;;;;;5073426;28;20032;-81
2021/11/26 01:27:58;;;;;;;30.40;16.53;;;5.40;68.90;;;;;;5063235;28;20024;-81
2021/11/26 01:32:58;;;;;;;29.60;15.57;;;5.40;69.40;;;;;;5093532;28;20027;-82
2021/11/26 01:35:25;;;;;;;23.50;15.33;;;5.50;68.80;;;;;;5076121;28;20059;-81
2021/11/26 01:37:51;;;;;;;39.20;15.90;;;5.50;68.80;;;;;;5091145;28;20469;-82
2021/11/26 01:40:19;;;;;;;26.67;16.33;;;5.50;68.70;;;;;;5075982;28;20039;-82
2021/11/26 01:42:46;;;;;;;28.53;16.77;;;5.50;68.70;;;;;;5071872;28;20074;-81
2021/11/26 01:45:13;;;;;;;30.20;15.80;;;5.50;68.60;;;;;;5086180;28;20024;-83
2021/11/26 01:47:38;;;;;;;29.63;16.17;;;5.50;68.70;;;;;;5083453;28;20391;-82
2021/11/26 01:50:06;;;;;;;26.83;15.97;;;5.40;68.60;;;;;;5094518;28;20024;-81
2021/11/26 01:52:32;;;;;;;24.43;15.67;;;5.50;68.70;;;;;;5073789;28;21004;-82
2021/11/26 01:54:58;;;;;;;26.00;15.07;;;5.40;68.70;;;;;;5082222;28;20027;-81
2021/11/26 01:57:24;;;;;;;27.40;15.30;;;5.40;68.70;;;;;;5080216;28;20024;-82
2021/11/26 01:59:51;;;;;;;27.53;16.03;;;5.40;68.70;;;;;;5077558;28;20027;-80
2021/11/26 02:02:18;;;;;;;27.37;15.37;;;5.40;68.80;;;;;;5076265;28;20038;-82
2021/11/26 02:04:44;;;;;;;28.93;15.67;;;5.40;68.80;;;;;;5095616;28;20024;-81
2021/11/26 02:07:10;;;;;;;30.50;16.40;;;5.40;68.70;;;;;;5058722;28;20043;-82
2021/11/26 02:09:36;;;;;;;29.43;17.17;;;5.40;68.60;;;;;;5095588;28;20031;-82
2021/11/26 02:12:03;;;;;;;40.30;22.77;;;5.40;68.70;;;;;;5090938;28;20070;-82
2021/11/26 02:14:30;;;;;;;26.40;16.03;;;5.50;68.80;;;;;;5101921;28;20429;-81
2021/11/26 02:16:56;;;;;;;23.93;15.10;;;5.50;68.80;;;;;;5084261;28;20028;-81
2021/11/26 02:19:26;;;;;;;27.37;15.20;;;5.40;68.60;;;;;;5092711;28;20032;-81
2021/11/26 02:21:54;;;;;;;29.47;15.77;;;5.50;68.70;;;;;;5079777;28;20028;-82
2021/11/26 02:24:21;;;;;;;26.53;14.37;;;5.50;68.70;;;;;;5077091;28;20072;-81
2021/11/26 02:26:48;;;;;;;26.37;14.67;;;5.50;68.70;;;;;;5075091;28;20051;-81
2021/11/26 02:29:16;;;;;;;27.27;14.27;;;5.50;68.60;;;;;;5088872;28;20031;-81
2021/11/26 02:31:42;;;;;;;24.30;13.77;;;5.50;68.60;;;;;;5084819;28;20016;-81
2021/11/26 02:34:08;;;;;;;24.97;13.80;;;5.50;68.60;;;;;;5084212;28;20429;-82
2021/11/26 02:36:34;;;;;;;23.30;13.17;;;5.50;68.40;;;;;;5077062;28;20438;-81
2021/11/26 02:39:01;;;;;;;23.97;13.43;;;5.50;68.40;;;;;;5094704;28;20371;-81
2021/11/26 02:41:27;;;;;;;26.93;13.50;;;5.40;68.40;;;;;;5094983;28;20028;-81
2021/11/26 02:43:54;;;;;;;25.80;14.23;;;5.50;68.30;;;;;;5075657;28;20286;-81
2021/11/26 02:46:20;;;;;;;23.17;13.90;;;5.40;68.40;;;;;;5074522;28;20028;-82
2021/11/26 02:48:46;;;;;;;27.77;14.90;;;5.40;68.20;;;;;;5101043;28;20035;-81
2021/11/26 02:51:12;;;;;;;26.67;14.17;;;5.40;68.20;;;;;;5097030;28;20102;-82
2021/11/26 02:53:38;;;;;;;27.60;14.83;;;5.40;68.20;;;;;;5081340;28;20042;-82
2021/11/26 02:56:04;;;;;;;24.27;14.50;;;5.40;68.20;;;;;;5074734;28;20024;-81
2021/11/26 02:58:30;;;;;;;25.27;14.10;;;5.40;68.30;;;;;;5071141;28;20082;-81
2021/11/26 03:00:58;;;;;;;25.50;13.63;;;5.40;68.20;;;;;;5088663;28;20027;-81
2021/11/26 03:03:24;;;;;;;21.67;13.83;;;5.30;68.00;;;;;;5068419;28;20028;-82
2021/11/26 03:05:54;;;;;;;24.23;13.63;;;5.20;68.20;;;;;;5074630;28;20026;-82
2021/11/26 03:08:20;;;;;;;26.33;14.43;;;5.20;68.40;;;;;;5093663;28;20375;-82
2021/11/26 03:10:45;;;;;;;23.47;13.10;;;5.10;68.30;;;;;;5094027;28;20103;-82
2021/11/26 03:13:12;;;;;;;25.30;14.13;;;5.20;68.50;;;;;;5094388;28;20036;-81
2021/11/26 03:15:40;;;;;;;20.70;12.90;;;5.20;68.40;;;;;;5076220;28;20073;-82
2021/11/26 03:18:07;;;;;;;22.03;13.10;;;5.10;68.30;;;;;;5064298;28;20024;-82
2021/11/26 03:20:33;;;;;;;22.90;13.17;;;5.10;68.40;;;;;;5076050;28;20032;-82
2021/11/26 03:22:59;;;;;;;24.80;13.47;;;5.10;68.50;;;;;;5091608;28;20368;-81
2021/11/26 03:25:26;;;;;;;24.10;12.57;;;5.20;68.40;;;;;;5075941;28;20035;-82
2021/11/26 03:27:52;;;;;;;21.90;12.80;;;5.20;68.70;;;;;;5075571;28;20027;-81
2021/11/26 03:30:21;;;;;;;20.53;11.97;;;5.30;68.30;;;;;;5075459;28;20838;-82
2021/11/26 03:32:47;;;;;;;21.17;12.40;;;5.30;68.30;;;;;;5059764;28;20103;-81
2021/11/26 03:35:15;;;;;;;20.87;12.50;;;5.20;68.10;;;;;;5059122;28;20032;-82
2021/11/26 03:37:41;;;;;;;25.63;14.70;;;5.20;68.10;;;;;;5074356;28;20028;-80
2021/11/26 03:40:09;;;;;;;22.30;11.77;;;5.10;68.10;;;;;;5093760;28;20054;-80
2021/11/26 03:42:34;;;;;;;22.30;12.10;;;5.10;68.40;;;;;;5074121;28;20032;-80
2021/11/26 03:45:01;;;;;;;25.17;14.37;;;5.30;68.30;;;;;;5069032;28;20483;-80
2021/11/26 03:47:27;;;;;;;24.27;12.77;;;5.20;68.20;;;;;;5074530;28;20028;-80
2021/11/26 03:49:53;;;;;;;21.50;12.03;;;5.20;68.20;;;;;;5092506;28;20028;-80
2021/11/26 03:52:20;;;;;;;23.13;13.77;;;5.20;68.30;;;;;;5090027;28;20060;-80
2021/11/26 03:54:46;;;;;;;23.07;13.00;;;5.10;68.40;;;;;;5070965;28;20024;-80
2021/11/26 03:57:12;;;;;;;20.47;12.10;;;5.10;68.50;;;;;;5069278;28;20028;-81
2021/11/26 03:59:37;;;;;;;20.97;12.73;;;5.10;68.30;;;;;;5082790;28;20017;-80
2021/11/26 04:02:04;;;;;;;24.40;12.63;;;5.20;68.40;;;;;;5086888;28;20032;-80
2021/11/26 04:04:30;;;;;;;22.13;12.40;;;5.20;68.40;;;;;;5073132;28;20081;-80
2021/11/26 04:06:57;;;;;;;23.97;12.93;;;5.20;68.40;;;;;;5089544;28;20056;-80
2021/11/26 04:09:23;;;;;;;24.17;12.27;;;5.20;68.40;;;;;;5078837;28;20047;-80
2021/11/26 04:11:49;;;;;;;22.93;12.87;;;5.20;68.20;;;;;;5076475;28;20093;-80
2021/11/26 04:14:15;;;;;;;21.03;12.97;;;5.20;68.20;;;;;;5070610;28;20119;-80
2021/11/26 04:16:40;;;;;;;27.20;12.43;;;5.20;68.10;;;;;;5068472;28;20115;-80
2021/11/26 04:19:07;;;;;;;21.37;12.70;;;5.30;68.20;;;;;;5071994;28;20024;-79
2021/11/26 04:21:33;;;;;;;22.57;12.60;;;5.20;68.10;;;;;;5071569;28;20032;-80
2021/11/26 04:24:02;;;;;;;22.53;12.23;;;5.30;68.20;;;;;;5087346;28;20031;-80
2021/11/26 04:26:29;;;;;;;18.50;11.37;;;5.30;68.10;;;;;;5055834;28;20585;-80
2021/11/26 04:28:54;;;;;;;21.47;11.73;;;5.30;68.00;;;;;;5068469;28;20032;-80
2021/11/26 04:31:20;;;;;;;18.93;11.30;;;5.30;67.80;;;;;;5074987;28;20039;-80
2021/11/26 04:33:47;;;;;;;22.27;12.87;;;5.30;67.80;;;;;;5092869;28;20039;-80
2021/11/26 04:36:14;;;;;;;20.77;11.33;;;5.30;67.80;;;;;;5092532;28;20146;-80
2021/11/26 04:38:40;;;;;;;22.13;12.63;;;5.30;67.80;;;;;;5066158;28;20047;-79
2021/11/26 04:41:07;;;;;;;18.17;11.10;;;5.20;67.80;;;;;;5092143;28;20032;-80
2021/11/26 04:43:32;;;;;;;19.17;10.07;;;5.30;67.90;;;;;;5071696;28;20036;-80
2021/11/26 04:45:58;;;;;;;19.03;11.57;;;5.20;67.90;;;;;;5087901;28;20035;-80
2021/11/26 04:48:24;;;;;;;19.07;11.10;;;5.30;67.90;;;;;;5073147;28;20039;-80
2021/11/26 04:50:51;;;;;;;18.83;10.97;;;5.30;67.80;;;;;;5067721;28;20035;-80
2021/11/26 04:53:18;;;;;;;18.27;10.23;;;5.30;67.70;;;;;;5070953;28;20046;-80
2021/11/26 04:55:44;;;;;;;17.83;9.80;;;5.20;67.30;;;;;;5072168;28;20107;-80
2021/11/26 04:58:09;;;;;;;19.87;10.13;;;5.20;67.50;;;;;;5071073;28;20055;-80
2021/11/26 05:00:35;;;;;;;19.10;11.20;;;5.20;67.60;;;;;;5089056;28;20059;-79
2021/11/26 05:03:01;;;;;;;19.13;10.73;;;5.20;67.50;;;;;;5068329;28;20024;-80
2021/11/26 05:05:27;;;;;;;18.93;10.30;;;5.20;67.50;;;;;;5085198;28;20017;-80
2021/11/26 05:07:53;;;;;;;20.87;11.43;;;5.20;67.50;;;;;;5091751;28;20016;-80
2021/11/26 05:10:20;;;;;;;19.47;11.10;;;5.20;67.50;;;;;;5089926;28;20047;-80
2021/11/26 05:12:51;;;;;;;19.60;11.70;;;5.20;67.60;;;;;;5070831;28;20441;-80
2021/11/26 05:15:24;;;;;;;19.23;10.90;;;5.30;67.60;;;;;;5088769;28;20128;-80
2021/11/26 05:17:50;;;;;;;20.23;11.37;;;5.30;67.60;;;;;;5089050;28;20050;-80
2021/11/26 05:20:16;;;;;;;20.33;11.40;;;5.30;67.40;;;;;;5076661;28;20033;-80
2021/11/26 05:22:41;;;;;;;20.37;11.07;;;5.30;67.30;;;;;;5092453;28;20085;-80
2021/11/26 05:25:08;;;;;;;20.03;11.07;;;5.30;67.30;;;;;;5089454;28;20047;-79
2021/11/26 05:27:33;;;;;;;19.17;10.67;;;5.30;67.30;;;;;;5070371;28;20125;-80
2021/11/26 05:29:59;;;;;;;23.07;11.63;;;5.20;67.30;;;;;;5090804;28;20103;-80
2021/11/26 05:32:25;;;;;;;17.17;10.60;;;5.30;67.30;;;;;;5071645;28;20023;-80
2021/11/26 05:34:51;;;;;;;19.73;10.23;;;5.20;67.30;;;;;;5090542;28;20024;-80
2021/11/26 05:37:16;;;;;;;16.73;10.40;;;5.20;67.30;;;;;;5090138;28;20039;-79
2021/11/26 05:39:42;;;;;;;18.97;10.67;;;5.10;67.30;;;;;;5072588;28;20032;-80
2021/11/26 05:42:08;;;;;;;22.20;11.97;;;5.10;67.50;;;;;;5075032;28;20057;-80
2021/11/26 05:44:34;;;;;;;18.20;10.80;;;5.10;67.50;;;;;;5091407;28;20113;-81
2021/11/26 05:46:59;;;;;;;18.60;10.63;;;5.10;67.40;;;;;;5092242;28;20048;-80
2021/11/26 05:49:25;;;;;;;19.47;11.63;;;5.20;67.50;;;;;;5074093;28;20064;-81
2021/11/26 05:51:51;;;;;;;18.57;10.93;;;5.20;67.50;;;;;;5092583;28;20103;-80
2021/11/26 05:54:17;;;;;;;20.50;11.60;;;5.20;67.50;;;;;;5072639;28;20481;-81
2021/11/26 05:56:43;;;;;;;20.70;10.63;;;5.20;67.40;;;;;;5069323;28;20035;-82
2021/11/26 05:59:08;;;;;;;20.57;11.60;;;5.20;67.60;;;;;;5051054;28;20025;-81
2021/11/26 06:01:34;;;;;;;21.50;12.37;;;5.20;67.60;;;;;;5063208;28;20576;-81
2021/11/26 06:04:00;;;;;;;20.07;11.67;;;5.20;67.60;;;;;;5053442;28;20051;-82
2021/11/26 06:06:25;;;;;;;23.17;11.13;;;5.20;67.50;;;;;;5040083;28;20033;-81
2021/11/26 06:08:51;;;;;;;19.13;11.13;;;5.20;67.60;;;;;;5057141;28;20024;-82
2021/11/26 06:11:17;;;;;;;18.67;11.03;;;5.20;67.50;;;;;;5054778;28;20028;-82
2021/11/26 06:13:43;;;;;;;22.87;11.07;;;5.10;67.60;;;;;;5070576;28;20027;-82
2021/11/26 06:16:08;;;;;;;24.20;11.90;;;5.10;67.70;;;;;;5052064;28;20377;-82
2021/11/26 06:18:34;;;;;;;19.60;9.67;;;5.10;67.70;;;;;;5072304;28;20109;-82
2021/11/26 06:21:00;;;;;;;18.33;10.33;;;5.10;67.60;;;;;;5055761;28;20028;-82
2021/11/26 06:23:25;;;;;;;18.73;10.40;;;5.10;67.80;;;;;;5073158;28;20021;-82
2021/11/26 06:25:51;;;;;;;18.97;9.83;;;5.10;67.80;;;;;;5055386;28;20482;-82
2021/11/26 06:28:17;;;;;;;21.07;10.23;;;5.10;67.90;;;;;;5073367;28;20025;-82
2021/11/26 06:30:43;;;;;;;21.30;10.83;;;5.20;67.80;;;;;;5063713;28;20024;-82
2021/11/26 06:33:09;;;;;;;17.63;9.57;;;5.20;67.80;;;;;;5056706;28;20051;-82
2021/11/26 06:35:34;;;;;;;18.30;10.53;;;5.20;67.80;;;;;;5079328;28;20029;-82
2021/11/26 06:38:00;;;;;;;18.77;9.70;;;5.20;67.80;;;;;;5067003;28;20037;-81
2021/11/26 06:40:28;;;;;;;17.60;9.90;;;5.20;67.80;;;;;;5061599;28;20034;-82
2021/11/26 06:42:54;;;;;;;16.90;10.30;;;5.20;67.80;;;;;;5064440;28;20040;-82
2021/11/26 06:45:20;;;;;;;19.67;10.10;;;5.20;67.80;;;;;;5079781;28;20090;-82
2021/11/26 06:47:47;;;;;;;16.33;9.67;;;5.20;67.90;;;;;;5081884;28;20031;-82
2021/11/26 06:50:15;;;;;;;19.40;10.97;;;5.10;67.80;;;;;;5054404;28;20029;-82
2021/11/26 06:52:41;;;;;;;20.07;10.57;;;5.10;68.00;;;;;;5053394;28;20091;-82
2021/11/26 06:55:08;;;;;;;20.77;10.70;;;5.10;68.00;;;;;;5072902;28;20423;-82
2021/11/26 06:57:37;;;;;;;21.00;11.10;;;5.10;68.50;;;;;;5067903;28;20107;-82
2021/11/26 07:00:08;;;;;;;20.07;10.87;;;5.10;68.20;;;;;;5054305;28;20087;-82
2021/11/26 07:02:34;;;;;;;20.13;11.03;;;5.10;68.20;;;;;;5052389;28;20035;-82
2021/11/26 07:05:01;;;;;;;20.27;10.90;;;5.10;68.20;;;;;;5069281;28;20028;-82
2021/11/26 07:07:27;;;;;;;20.77;11.13;;;5.10;68.30;;;;;;5068691;28;20024;-82
2021/11/26 07:09:52;;;;;;;21.17;11.60;;;5.10;68.20;;;;;;5053716;28;20035;-81
2021/11/26 07:12:18;;;;;;;23.33;12.03;;;5.10;68.30;;;;;;5047851;28;20379;-82
2021/11/26 07:14:45;;;;;;;21.37;12.17;;;5.10;68.40;;;;;;5058076;28;20031;-82
2021/11/26 07:17:12;;;;;;;21.13;11.07;;;5.10;68.40;;;;;;5077553;28;20016;-81
2021/11/26 07:19:39;;;;;;;21.23;10.63;;;5.10;68.50;;;;;;5060586;28;20519;-82
2021/11/26 07:22:06;;;;;;;25.23;12.40;;;5.10;68.60;;;;;;5065843;28;20106;-82
2021/11/26 07:24:32;;;;;;;18.83;11.33;;;5.10;68.70;;;;;;5055584;28;20029;-82
2021/11/26 07:26:57;;;;;;;20.13;12.00;;;5.10;68.80;;;;;;5073210;28;20116;-81
2021/11/26 07:29:23;;;;;;;20.63;11.43;;;5.10;68.80;;;;;;5072088;28;20062;-82
2021/11/26 07:31:49;;;;;;;21.53;12.03;;;5.10;68.70;;;;;;5056147;28;20086;-82
2021/11/26 07:34:15;;;;;;;21.43;11.57;;;5.10;68.70;;;;;;5073458;28;20753;-82
2021/11/26 07:36:41;;;;;;;23.87;13.03;;;5.10;68.90;;;;;;5054177;28;20024;-82
2021/11/26 07:39:08;;;;;;;22.07;12.60;;;5.10;68.90;;;;;;5074425;28;20383;-82
2021/11/26 07:41:33;;;;;;;23.33;12.10;;;5.10;68.90;;;;;;5083823;28;20529;-82
2021/11/26 07:43:59;;;;;;;22.20;11.97;;;5.10;68.90;;;;;;5070248;28;20032;-82
2021/11/26 07:46:25;;;;;;;23.80;11.40;;;5.10;68.90;;;;;;5058971;28;20489;-82
2021/11/26 07:48:51;;;;;;;18.70;11.57;;;5.00;68.90;;;;;;5084819;28;20028;-82
2021/11/26 07:51:16;;;;;;;23.73;11.57;;;5.10;69.00;;;;;;5072672;28;20029;-82
2021/11/26 07:53:42;;;;;;;17.17;9.70;;;5.10;69.10;;;;;;5071584;28;20059;-82
2021/11/26 07:56:08;;;;;;;19.40;10.77;;;5.10;69.00;;;;;;5055704;28;20024;-82
2021/11/26 07:58:34;;;;;;;18.53;10.63;;;5.20;68.90;;;;;;5039053;28;20029;-82
2021/11/26 08:01:00;;;;;;;21.10;10.80;;;5.20;68.50;;;;;;5055993;28;20024;-82
2021/11/26 08:03:25;;;;;;;17.97;10.70;;;5.10;68.80;;;;;;5069937;28;20154;-82
2021/11/26 08:05:51;;;;;;;19.97;11.43;;;5.10;68.80;;;;;;5046163;28;20033;-82
2021/11/26 08:08:17;;;;;;;17.67;10.63;;;5.10;68.80;;;;;;5068319;28;20028;-82
2021/11/26 08:10:43;;;;;;;24.40;14.43;;;5.10;68.70;;;;;;5066239;28;20021;-82
2021/11/26 08:13:09;;;;;;;33.93;16.30;;;5.10;68.90;;;;;;5068918;28;20026;-82
2021/11/26 08:15:36;;;;;;;23.47;12.80;;;5.10;69.00;;;;;;5059456;28;20036;-82
2021/11/26 08:18:04;;;;;;;19.67;11.37;;;5.10;68.90;;;;;;5070947;28;20020;-82
2021/11/26 08:20:30;;;;;;;20.20;11.03;;;5.10;68.90;;;;;;5066673;28;20367;-82
2021/11/26 08:22:56;;;;;;;25.17;12.90;;;5.10;69.10;;;;;;5052006;28;20087;-82
2021/11/26 08:25:25;;;;;;;24.10;12.57;;;5.20;68.90;;;;;;5056862;28;20075;-82
2021/11/26 08:27:52;;;;;;;32.43;16.27;;;5.20;69.00;;;;;;5054150;28;20029;-82
2021/11/26 08:30:19;;;;;;;28.37;13.90;;;5.20;69.00;;;;;;5064718;28;20040;-82
2021/11/26 08:32:45;;;;;;;23.47;12.53;;;5.30;68.80;;;;;;5088385;28;20021;-81
2021/11/26 08:35:11;;;;;;;37.90;17.50;;;5.20;68.60;;;;;;5069079;28;20029;-80
2021/11/26 08:37:37;;;;;;;23.97;13.17;;;5.20;68.60;;;;;;5052138;28;20028;-80
2021/11/26 08:40:04;;;;;;;69.83;32.20;;;5.20;68.40;;;;;;5049771;28;20028;-80
2021/11/26 08:42:30;;;;;;;49.23;24.83;;;5.20;68.40;;;;;;5071985;28;20550;-80
2021/11/26 08:44:56;;;;;;;25.83;13.53;;;5.20;68.30;;;;;;5067337;28;20052;-80
2021/11/26 08:47:22;;;;;;;21.73;12.90;;;5.20;68.30;;;;;;5043567;28;20039;-81
2021/11/26 08:49:48;;;;;;;23.30;12.00;;;5.30;68.40;;;;;;5054309;28;20032;-81
2021/11/26 08:52:14;;;;;;;18.07;10.33;;;5.30;68.10;;;;;;5054961;28;20056;-81
2021/11/26 08:54:40;;;;;;;16.70;9.97;;;5.30;68.00;;;;;;5052363;28;20479;-81
2021/11/26 08:57:06;;;;;;;29.60;16.37;;;5.20;68.20;;;;;;5072967;28;20074;-81
2021/11/26 08:59:32;;;;;;;21.93;13.50;;;5.20;68.20;;;;;;5053703;28;20031;-81
2021/11/26 09:01:58;;;;;;;21.90;11.97;;;5.20;68.10;;;;;;5055463;28;20029;-81
2021/11/26 09:04:25;;;;;;;17.87;11.00;;;5.20;68.10;;;;;;5069747;28;20031;-81
2021/11/26 09:06:52;;;;;;;28.03;15.97;;;5.20;68.00;;;;;;5067502;28;20056;-81
2021/11/26 09:09:22;;;;;;;14.67;8.57;;;5.20;68.10;;;;;;5077034;28;20469;-81
2021/11/26 09:11:49;;;;;;;22.23;13.53;;;5.20;68.20;;;;;;5096861;28;20043;-81
2021/11/26 09:14:15;;;;;;;18.87;10.90;;;5.30;68.00;;;;;;5078911;28;20025;-82
2021/11/26 09:16:41;;;;;;;19.30;11.57;;;5.20;67.90;;;;;;5061297;28;20545;-82
2021/11/26 09:19:06;;;;;;;17.23;10.10;;;5.30;68.00;;;;;;5075769;28;20028;-82
2021/11/26 09:21:33;;;;;;;20.57;12.17;;;5.30;67.80;;;;;;5041300;28;20051;-82
2021/11/26 09:24:00;;;;;;;21.90;11.33;;;5.30;67.70;;;;;;5056113;28;20040;-82
2021/11/26 09:26:26;;;;;;;18.27;11.73;;;5.30;67.60;;;;;;5045120;28;20020;-82
2021/11/26 09:28:53;;;;;;;15.87;9.90;;;5.30;67.70;;;;;;5075634;28;20029;-82
2021/11/26 09:31:19;;;;;;;16.57;9.93;;;5.30;67.70;;;;;;5075378;28;20099;-82
2021/11/26 09:33:47;;;;;;;18.43;10.13;;;5.40;67.70;;;;;;5056357;28;20029;-82
2021/11/26 09:36:13;;;;;;;19.60;12.20;;;5.40;67.60;;;;;;5075963;28;20143;-83
2021/11/26 09:38:41;;;;;;;17.40;10.00;;;5.50;67.60;;;;;;5075555;28;20017;-82
2021/11/26 09:41:10;;;;;;;19.17;11.27;;;5.40;67.70;;;;;;5057784;28;20027;-83
2021/11/26 09:43:35;;;;;;;19.10;11.80;;;5.50;67.70;;;;;;5044967;28;20053;-82
2021/11/26 09:46:04;;;;;;;15.97;10.07;;;5.50;67.50;;;;;;5037832;28;20063;-82
2021/11/26 09:48:32;;;;;;;17.07;10.23;;;5.60;67.50;;;;;;5037652;28;20029;-82
2021/11/26 09:50:58;;;;;;;19.00;9.60;;;5.60;67.50;;;;;;5037887;28;20484;-82
2021/11/26 09:53:26;;;;;;;18.13;9.73;;;5.70;67.40;;;;;;5062906;28;20055;-83
2021/11/26 09:56:05;;;;;;;14.93;10.03;;;5.70;67.20;;;;;;5046886;28;20144;-83
2021/11/26 09:58:31;;;;;;;15.60;10.43;;;5.70;67.30;;;;;;5064474;28;20032;-82
2021/11/26 10:00:59;;;;;;;19.07;10.43;;;5.80;67.20;;;;;;5075350;28;20079;-82
2021/11/26 10:03:45;;;;;;;19.87;10.50;;;5.80;67.10;;;;;;5074433;28;20471;-82
2021/11/26 10:06:36;;;;;;;22.13;10.67;;;5.80;67.10;;;;;;5076978;28;20101;-82
2021/11/26 10:09:07;;;;;;;22.97;10.37;;;5.80;67.00;;;;;;5077221;28;20098;-83
2021/11/26 10:11:38;;;;;;;18.33;9.27;;;5.80;66.90;;;;;;5091443;28;20025;-80
2021/11/26 10:14:33;;;;;;;17.57;9.37;;;5.70;67.00;;;;;;5074374;28;20062;-80
2021/11/26 10:17:14;;;;;;;16.60;9.83;;;5.70;67.00;;;;;;5057260;28;20024;-81
2021/11/26 10:19:41;;;;;;;20.00;10.37;;;5.70;67.10;;;;;;5075268;28;20074;-81
2021/11/26 10:22:22;;;;;;;19.30;9.60;;;5.60;66.90;;;;;;5056697;28;20480;-81
2021/11/26 10:25:15;;;;;;;17.10;8.93;;;5.50;67.00;;;;;;5068677;28;20507;-80
2021/11/26 10:27:56;;;;;;;15.50;8.43;;;5.50;67.30;;;;;;5074445;28;20040;-80
2021/11/26 10:30:38;;;;;;;15.87;9.03;;;5.50;67.50;;;;;;5074821;28;20361;-80
2021/11/26 10:33:25;;;;;;;22.73;10.43;;;5.50;67.40;;;;;;5057374;28;20072;-80
2021/11/26 10:35:55;;;;;;;14.93;9.20;;;5.50;67.20;;;;;;5065318;28;20025;-80
2021/11/26 10:38:26;;;;;;;19.73;9.90;;;5.50;67.30;;;;;;5053598;28;20039;-80
2021/11/26 10:40:55;;;;;;;20.70;9.63;;;5.40;67.30;;;;;;5056217;28;20074;-80
2021/11/26 10:43:32;;;;;;;15.17;8.00;;;5.50;67.30;;;;;;5056177;28;20031;-80
2021/11/26 10:59:49;;;;;;;16.23;8.50;;;5.50;66.90;;;;;;5065250;28;20377;-81
2021/11/26 11:02:25;;;;;;;15.73;9.10;;;5.50;66.90;;;;;;5069968;28;20032;-81
2021/11/26 11:04:51;;;;;;;21.27;9.77;;;5.40;67.00;;;;;;5073999;28;20021;-81
2021/11/26 11:07:18;;;;;;;15.50;9.47;;;5.40;67.00;;;;;;5074054;28;20031;-81
2021/11/26 11:09:55;;;;;;;16.13;8.93;;;5.40;67.20;;;;;;5055746;28;20494;-81
2021/11/26 11:12:32;;;;;;;19.77;9.60;;;5.40;67.20;;;;;;5072504;28;20087;-81
2021/11/26 11:15:00;;;;;;;20.33;9.53;;;5.40;67.10;;;;;;5053570;28;20397;-81
2021/11/26 11:17:28;;;;;;;18.97;9.50;;;5.40;67.10;;;;;;5053048;28;20110;-81
2021/11/26 11:19:57;;;;;;;17.60;9.43;;;5.40;67.30;;;;;;5094291;28;20782;-81
2021/11/26 11:22:24;;;;;;;16.43;9.67;;;5.40;67.20;;;;;;5063220;28;20024;-81
2021/11/26 11:24:51;;;;;;;13.47;8.53;;;5.40;67.10;;;;;;5035787;28;20021;-80
2021/11/26 11:27:17;;;;;;;17.93;9.00;;;5.30;67.20;;;;;;5036580;28;20413;-82
2021/11/26 11:29:43;;;;;;;16.03;8.67;;;5.40;67.40;;;;;;5048158;28;20063;-82
2021/11/26 11:32:11;;;;;;;15.23;9.13;;;5.40;67.30;;;;;;5074082;28;20056;-83
2021/11/26 11:34:38;;;;;;;18.57;10.07;;;5.40;67.10;;;;;;5073625;28;20017;-82
2021/11/26 11:37:08;;;;;;;12.27;8.07;;;5.40;67.20;;;;;;5073588;28;20416;-83
2021/11/26 11:40:07;;;;;;;15.30;8.93;;;5.50;67.30;;;;;;5073230;28;20031;-82
2021/11/26 11:42:42;;;;;;;15.20;8.03;;;5.50;67.20;;;;;;5058670;28;20033;-82
2021/11/26 11:45:14;;;;;;;14.63;8.33;;;5.50;67.20;;;;;;5059393;28;20499;-83
2021/11/26 11:47:47;;;;;;;16.60;9.27;;;5.50;67.30;;;;;;5049047;28;20437;-82
2021/11/26 11:50:19;;;;;;;17.33;9.20;;;5.50;67.30;;;;;;5051571;28;20567;-82
2021/11/26 11:52:53;;;;;;;17.80;9.82;;;5.50;67.20;;;;;;5053263;28;20049;-83
2021/11/26 11:55:21;;;;;;;15.47;9.20;;;5.50;67.40;;;;;;5053986;28;20025;-82
2021/11/26 11:57:47;;;;;;;17.87;8.73;;;5.50;67.40;;;;;;5059846;28;20124;-82
2021/11/26 12:00:20;;;;;;;15.47;8.97;;;5.50;67.30;;;;;;5059497;28;20503;-82
2021/11/26 12:02:48;;;;;;;14.13;8.40;;;5.50;67.20;;;;;;5054901;28;20039;-83
2021/11/26 12:05:21;;;;;;;13.40;8.20;;;5.60;67.10;;;;;;5054994;28;20451;-82
2021/11/26 12:07:48;;;;;;;15.70;9.73;;;5.60;67.10;;;;;;5055069;28;20048;-82
2021/11/26 12:10:16;;;;;;;19.13;9.03;;;5.70;66.90;;;;;;5054924;28;20454;-83
2021/11/26 12:12:52;;;;;;;15.60;8.67;;;5.60;66.80;;;;;;5071898;28;20032;-82
2021/11/26 12:15:29;;;;;;;19.13;8.73;;;5.60;66.90;;;;;;5054511;28;20044;-82
2021/11/26 12:18:07;;;;;;;28.83;14.73;;;5.60;66.90;;;;;;5071972;28;20021;-82
2021/11/26 12:20:36;;;;;;;16.57;10.63;;;5.60;66.90;;;;;;5073055;28;20039;-83
2021/11/26 12:23:27;;;;;;;16.23;9.13;;;5.60;67.60;;;;;;5072944;28;20438;-83
2021/11/26 12:26:12;;;;;;;19.03;9.13;;;5.60;67.10;;;;;;5054607;28;20028;-83
2021/11/26 12:28:41;;;;;;;18.10;9.20;;;5.60;67.00;;;;;;5050718;28;20032;-82
2021/11/26 12:31:10;;;;;;;14.60;8.63;;;5.60;67.10;;;;;;5047660;28;20748;-82
2021/11/26 12:33:37;;;;;;;16.13;8.30;;;5.70;67.00;;;;;;5047221;28;20563;-83
2021/11/26 12:36:21;;;;;;;18.17;9.43;;;5.70;67.00;;;;;;5058138;28;20032;-83
2021/11/26 12:38:52;;;;;;;18.20;8.53;;;5.80;66.80;;;;;;5053256;28;20043;-82
2021/11/26 12:41:30;;;;;;;17.40;9.33;;;5.70;66.70;;;;;;5067881;28;20431;-82
2021/11/26 12:43:56;;;;;;;17.30;9.47;;;5.70;66.70;;;;;;5044825;28;20043;-82
2021/11/26 12:46:24;;;;;;;14.23;8.70;;;5.60;66.60;;;;;;5053137;28;20025;-82
2021/11/26 12:49:08;;;;;;;16.67;8.97;;;5.60;66.50;;;;;;5047851;28;20028;-82
2021/11/26 12:51:37;;;;;;;18.30;10.03;;;5.60;67.20;;;;;;5072471;28;20523;-83
2021/11/26 12:54:05;;;;;;;16.00;9.17;;;5.60;66.70;;;;;;5071507;28;20040;-83
2021/11/26 12:56:39;;;;;;;16.00;8.93;;;5.50;66.60;;;;;;5072555;28;20021;-82
2021/11/26 12:59:05;;;;;;;16.43;8.03;;;5.60;66.80;;;;;;5054027;28;20499;-82